Time;durP1;ratioP1;P1;durP2;ratioP2;P2;SDS_P1;SDS_P2;PMS_P1;PMS_P2;Temp;Humidity;BMP_temperature;BMP_pressure;BME280_temperature;BME280_humidity;BME280_pressure;Samples;Min_cycle;Max_cycle;Signal;HPM_P1;HPM_P2
2021/10/28 00:14:06;;;;;;;14.98;10.95;;;11.10;67.90;;;;;;5091765;28;20051;-54
2021/10/28 00:16:36;;;;;;;15.07;10.50;;;11.10;67.80;;;;;;5084102;28;20031;-52
2021/10/28 00:19:03;;;;;;;13.35;10.10;;;11.10;67.90;;;;;;5092386;28;20024;-52
2021/10/28 00:21:35;;;;;;;15.23;10.77;;;11.10;67.80;;;;;;5079415;28;20013;-52
2021/10/28 00:24:05;;;;;;;14.85;10.60;;;11.10;67.80;;;;;;5088755;28;20494;-53
2021/10/28 00:26:33;;;;;;;14.77;10.73;;;11.10;67.80;;;;;;5092466;28;20081;-52
2021/10/28 00:29:02;;;;;;;13.85;10.48;;;11.10;67.80;;;;;;5091966;28;20024;-53
2021/10/28 00:31:31;;;;;;;15.05;10.40;;;11.10;67.80;;;;;;5095276;28;20103;-55
2021/10/28 00:33:59;;;;;;;13.25;11.05;;;11.00;67.80;;;;;;5091807;28;20114;-51
2021/10/28 00:36:26;;;;;;;16.08;11.23;;;11.00;67.70;;;;;;5095167;28;20047;-54
2021/10/28 00:38:52;;;;;;;17.10;12.05;;;11.00;68.30;;;;;;5096064;28;20023;-52
2021/10/28 00:41:19;;;;;;;14.27;10.52;;;11.00;67.70;;;;;;5084357;28;20070;-52
2021/10/28 00:43:48;;;;;;;13.38;10.77;;;11.00;67.80;;;;;;5093531;28;20012;-52
2021/10/28 00:46:17;;;;;;;14.25;11.20;;;11.00;67.90;;;;;;5095662;28;20077;-52
2021/10/28 00:48:45;;;;;;;15.65;11.45;;;11.00;67.80;;;;;;5094603;28;20460;-52
2021/10/28 00:51:11;;;;;;;14.38;10.52;;;10.90;67.80;;;;;;5098179;28;20016;-52
2021/10/28 00:53:37;;;;;;;15.43;11.82;;;10.90;67.90;;;;;;5095509;28;20020;-51
2021/10/28 00:56:04;;;;;;;15.10;11.35;;;10.90;68.00;;;;;;5095705;28;20516;-52
2021/10/28 00:58:34;;;;;;;14.95;11.13;;;10.90;68.00;;;;;;5095502;28;20221;-52
2021/10/28 01:01:05;;;;;;;14.35;10.20;;;10.90;68.10;;;;;;5090272;28;20028;-52
2021/10/28 01:03:33;;;;;;;16.00;10.98;;;10.90;68.20;;;;;;5095293;28;20110;-52
2021/10/28 01:05:59;;;;;;;15.95;11.52;;;10.90;68.30;;;;;;5095034;28;20032;-52
2021/10/28 01:08:26;;;;;;;16.42;11.88;;;10.90;68.40;;;;;;5092515;28;20059;-52
2021/10/28 01:10:52;;;;;;;15.98;11.40;;;10.90;68.20;;;;;;5095031;28;20031;-52
2021/10/28 01:13:20;;;;;;;17.17;10.77;;;10.90;69.00;;;;;;5100703;28;20472;-52
2021/10/28 01:15:52;;;;;;;16.77;12.10;;;10.90;68.40;;;;;;5083237;28;20364;-52
2021/10/28 01:18:17;;;;;;;14.07;11.00;;;10.90;68.40;;;;;;5089234;28;20428;-52
2021/10/28 01:20:45;;;;;;;18.52;12.88;;;10.90;68.40;;;;;;5094743;28;20134;-52
2021/10/28 01:23:13;;;;;;;16.35;11.40;;;10.90;68.40;;;;;;5104423;28;20024;-55
2021/10/28 01:25:39;;;;;;;16.23;11.57;;;10.90;68.40;;;;;;5097841;28;20467;-54
2021/10/28 01:28:13;;;;;;;15.85;11.82;;;10.90;68.60;;;;;;5095155;28;20024;-52
2021/10/28 01:30:38;;;;;;;16.85;12.50;;;10.80;68.50;;;;;;5094816;28;20039;-52
2021/10/28 01:33:04;;;;;;;17.52;12.00;;;10.80;68.60;;;;;;5094929;28;20494;-52
2021/10/28 01:35:30;;;;;;;19.83;12.30;;;10.90;68.70;;;;;;5094019;28;20058;-52
2021/10/28 01:37:56;;;;;;;19.02;12.93;;;10.90;68.70;;;;;;5094126;28;20062;-52
2021/10/28 01:40:21;;;;;;;16.90;11.90;;;10.80;68.60;;;;;;5094463;28;20286;-53
2021/10/28 01:42:50;;;;;;;16.27;12.10;;;10.80;68.70;;;;;;5093484;28;20025;-52
2021/10/28 01:45:18;;;;;;;17.35;11.93;;;10.80;68.80;;;;;;5094500;28;20095;-55
2021/10/28 01:47:44;;;;;;;16.35;12.05;;;10.80;68.70;;;;;;5094376;28;20019;-52
2021/10/28 01:50:11;;;;;;;14.27;11.68;;;10.80;68.80;;;;;;5094186;28;20534;-53
2021/10/28 01:52:39;;;;;;;17.73;12.40;;;10.80;68.70;;;;;;5100931;28;20051;-55
2021/10/28 01:55:11;;;;;;;17.55;12.55;;;10.80;68.80;;;;;;5108237;28;20023;-55
2021/10/28 01:57:39;;;;;;;17.92;13.65;;;10.80;68.80;;;;;;5087433;28;20077;-52
2021/10/28 02:00:21;;;;;;;16.88;12.07;;;10.80;68.80;;;;;;5073421;28;20032;-56
2021/10/28 02:02:47;;;;;;;17.20;12.80;;;10.80;68.80;;;;;;5100154;28;20077;-52
2021/10/28 02:05:13;;;;;;;18.60;12.55;;;10.70;68.80;;;;;;5094216;28;20426;-53
2021/10/28 02:07:39;;;;;;;16.55;13.20;;;10.70;68.90;;;;;;5094168;28;20024;-52
2021/10/28 02:10:07;;;;;;;21.02;13.73;;;10.70;69.00;;;;;;5104201;28;20497;-55
2021/10/28 02:12:34;;;;;;;18.38;12.70;;;10.70;69.10;;;;;;5087836;28;20032;-55
2021/10/28 02:15:00;;;;;;;17.15;13.07;;;10.70;69.20;;;;;;5079242;28;20431;-55
2021/10/28 02:17:26;;;;;;;20.38;12.85;;;10.60;69.10;;;;;;5096142;28;20028;-53
2021/10/28 02:19:52;;;;;;;17.55;12.70;;;10.60;69.10;;;;;;5100739;28;20031;-53
2021/10/28 02:22:17;;;;;;;17.48;13.13;;;10.60;69.20;;;;;;5074941;28;20016;-54
2021/10/28 02:24:43;;;;;;;17.13;12.60;;;10.60;69.20;;;;;;5092381;28;20091;-52
2021/10/28 02:27:09;;;;;;;17.77;12.35;;;10.60;69.20;;;;;;5100847;28;20495;-53
2021/10/28 02:29:34;;;;;;;17.55;12.98;;;10.60;69.30;;;;;;5093372;28;20027;-54
2021/10/28 02:32:00;;;;;;;18.88;13.02;;;10.60;69.40;;;;;;5092847;28;20028;-52
2021/10/28 02:34:26;;;;;;;15.85;11.52;;;10.50;69.30;;;;;;5096371;28;20467;-55
2021/10/28 02:36:52;;;;;;;17.67;12.63;;;10.50;69.40;;;;;;5093137;28;20040;-54
2021/10/28 02:39:17;;;;;;;16.65;12.77;;;10.50;69.50;;;;;;5093278;28;20020;-53
2021/10/28 02:41:43;;;;;;;20.63;13.88;;;10.50;69.50;;;;;;5079799;28;20032;-55
2021/10/28 02:44:10;;;;;;;19.13;14.05;;;10.50;69.40;;;;;;5093527;28;20024;-54
2021/10/28 02:46:36;;;;;;;18.90;13.50;;;10.50;69.60;;;;;;5092357;28;20036;-55
2021/10/28 02:49:04;;;;;;;16.60;13.23;;;10.40;69.40;;;;;;5095406;28;20032;-55
2021/10/28 02:51:30;;;;;;;19.20;13.35;;;10.40;69.40;;;;;;5093462;28;20431;-53
2021/10/28 02:53:56;;;;;;;19.38;14.15;;;10.40;70.10;;;;;;5093085;28;20480;-55
2021/10/28 02:56:21;;;;;;;20.10;14.13;;;10.40;69.50;;;;;;5093130;28;20077;-53
2021/10/28 02:58:47;;;;;;;20.65;14.57;;;10.30;69.60;;;;;;5092161;28;20020;-55
2021/10/28 03:01:13;;;;;;;18.98;13.55;;;10.30;69.60;;;;;;5092990;28;20020;-55
2021/10/28 03:03:39;;;;;;;19.77;13.77;;;10.30;69.70;;;;;;5092186;28;20024;-52
2021/10/28 03:06:06;;;;;;;20.63;14.77;;;10.30;69.70;;;;;;5093336;28;20468;-54
2021/10/28 03:08:33;;;;;;;22.92;15.25;;;10.30;69.80;;;;;;5074642;28;20055;-55
2021/10/28 03:11:00;;;;;;;22.42;14.13;;;10.20;69.70;;;;;;5092520;28;20032;-52
2021/10/28 03:13:28;;;;;;;25.10;16.02;;;10.20;69.70;;;;;;5092677;28;20028;-53
2021/10/28 03:15:54;;;;;;;22.55;15.93;;;10.20;69.80;;;;;;5085653;28;20380;-55
2021/10/28 03:26:33;;;;;;;20.67;14.95;;;10.20;69.90;;;;;;5092895;28;20035;-52
2021/10/28 03:28:58;;;;;;;25.95;16.35;;;10.10;69.90;;;;;;5091755;28;20464;-55
2021/10/28 03:31:24;;;;;;;23.48;15.77;;;10.10;69.80;;;;;;5092476;28;20464;-56
2021/10/28 03:33:50;;;;;;;22.48;15.50;;;10.10;69.90;;;;;;5074405;28;20424;-53
2021/10/28 03:36:37;;;;;;;23.25;16.65;;;10.10;69.80;;;;;;5090551;28;20056;-55
2021/10/28 03:42:48;;;;;;;21.08;15.32;;;10.10;69.70;;;;;;5092621;28;20031;-52
2021/10/28 04:17:17;;;;;;;24.55;17.52;;;9.90;69.60;;;;;;5096148;28;20035;-56
2021/10/28 04:19:54;;;;;;;25.30;16.25;;;9.90;69.70;;;;;;5095374;28;20027;-52
2021/10/28 04:30:15;;;;;;;20.95;15.27;;;9.80;70.20;;;;;;5096098;28;20028;-53
2021/10/28 04:32:41;;;;;;;20.15;14.35;;;9.80;70.10;;;;;;5095906;28;20032;-52
2021/10/28 04:35:09;;;;;;;25.23;16.50;;;9.90;70.10;;;;;;5095433;28;20070;-52
2021/10/28 04:37:37;;;;;;;19.10;14.70;;;9.90;70.30;;;;;;5095652;28;20028;-52
2021/10/28 04:40:03;;;;;;;22.02;14.50;;;9.90;70.10;;;;;;5095583;28;20444;-52
2021/10/28 04:42:28;;;;;;;21.35;14.48;;;9.90;70.10;;;;;;5097266;28;20381;-52
2021/10/28 04:44:54;;;;;;;22.70;15.57;;;10.00;70.10;;;;;;5094597;28;20070;-52
2021/10/28 04:47:20;;;;;;;20.88;15.43;;;9.90;70.00;;;;;;5082063;28;20162;-55
2021/10/28 04:49:45;;;;;;;22.20;15.23;;;9.90;69.80;;;;;;5093686;28;20064;-52
2021/10/28 04:52:11;;;;;;;21.55;15.68;;;9.90;69.90;;;;;;5095812;28;20017;-52
2021/10/28 04:54:38;;;;;;;24.45;17.38;;;9.90;69.90;;;;;;5094981;28;20107;-53
2021/10/28 04:57:05;;;;;;;25.45;17.48;;;9.90;69.80;;;;;;5095022;28;20081;-53
2021/10/28 04:59:31;;;;;;;25.33;18.73;;;9.90;69.70;;;;;;5097753;28;20131;-52
2021/10/28 05:01:57;;;;;;;26.50;18.45;;;9.90;69.60;;;;;;5094762;28;20185;-53
2021/10/28 05:04:23;;;;;;;27.30;18.48;;;9.90;69.50;;;;;;5090483;28;20031;-52
2021/10/28 05:06:49;;;;;;;25.45;17.65;;;9.90;69.50;;;;;;5095283;28;20713;-52
2021/10/28 05:09:48;;;;;;;24.95;18.25;;;9.90;69.50;;;;;;5086888;28;20024;-52
2021/10/28 05:12:07;;;;;;;25.70;17.42;;;9.90;69.30;;;;;;5078497;28;20075;-55
2021/10/28 05:14:33;;;;;;;24.95;15.93;;;9.90;69.30;;;;;;5097159;28;20036;-52
2021/10/28 05:16:59;;;;;;;24.13;15.88;;;9.90;69.40;;;;;;5084032;28;20076;-52
2021/10/28 05:19:28;;;;;;;24.40;15.82;;;10.00;69.50;;;;;;5080721;28;20149;-52
2021/10/28 05:21:53;;;;;;;24.02;16.15;;;10.00;69.40;;;;;;5083835;28;20024;-52
2021/10/28 05:24:19;;;;;;;20.02;14.88;;;10.00;69.40;;;;;;5079710;28;20029;-52
2021/10/28 05:26:45;;;;;;;24.67;15.60;;;10.10;69.30;;;;;;5084401;28;20158;-55
2021/10/28 05:29:11;;;;;;;21.17;14.75;;;10.10;69.20;;;;;;5088120;28;20114;-55
2021/10/28 05:31:36;;;;;;;20.10;13.77;;;10.10;69.10;;;;;;5083933;28;20122;-55
2021/10/28 05:34:02;;;;;;;20.70;15.88;;;10.20;69.40;;;;;;5089636;28;20055;-55
2021/10/28 05:36:28;;;;;;;18.65;14.40;;;10.20;69.20;;;;;;5082353;28;20047;-54
2021/10/28 05:38:53;;;;;;;17.65;14.25;;;10.30;69.20;;;;;;5087228;28;20069;-54
2021/10/28 05:41:20;;;;;;;20.55;13.80;;;10.40;69.40;;;;;;5087144;28;20150;-56
2021/10/28 05:43:45;;;;;;;18.40;13.98;;;10.40;69.20;;;;;;5086129;28;20039;-54
2021/10/28 05:46:11;;;;;;;18.27;13.48;;;10.50;69.20;;;;;;5081002;28;20111;-54
2021/10/28 05:48:37;;;;;;;20.35;14.15;;;10.50;69.00;;;;;;5088415;28;20032;-53
2021/10/28 05:51:04;;;;;;;16.50;12.57;;;10.60;68.90;;;;;;5082848;28;20035;-55
2021/10/28 05:53:31;;;;;;;18.15;13.68;;;10.60;68.70;;;;;;5079180;28;20139;-54
2021/10/28 05:55:56;;;;;;;17.20;13.05;;;10.70;68.80;;;;;;5076863;28;20028;-55
2021/10/28 05:58:22;;;;;;;18.50;13.15;;;10.70;68.60;;;;;;5078577;28;20126;-55
2021/10/28 06:00:48;;;;;;;17.77;12.88;;;10.70;68.60;;;;;;5080012;28;20024;-55
2021/10/28 06:03:14;;;;;;;18.48;13.98;;;10.80;68.60;;;;;;5080129;28;20079;-55
2021/10/28 06:05:40;;;;;;;16.33;11.80;;;10.80;69.10;;;;;;5079712;28;20554;-54
2021/10/28 06:08:05;;;;;;;18.35;13.80;;;10.90;68.30;;;;;;5086455;28;20059;-54
2021/10/28 06:10:32;;;;;;;19.05;13.25;;;10.90;68.30;;;;;;5079183;28;20028;-52
2021/10/28 06:13:01;;;;;;;18.83;13.98;;;11.00;68.10;;;;;;5085184;28;20030;-55
2021/10/28 06:15:29;;;;;;;18.05;13.23;;;11.10;68.10;;;;;;5076754;28;20032;-54
2021/10/28 06:18:01;;;;;;;17.80;12.70;;;11.20;68.10;;;;;;5075419;28;20039;-52
2021/10/28 06:20:26;;;;;;;19.63;13.85;;;11.30;68.00;;;;;;5080192;28;20031;-54
2021/10/28 06:22:53;;;;;;;16.48;13.18;;;11.40;67.90;;;;;;5083882;28;20040;-54
2021/10/28 06:25:20;;;;;;;16.20;11.93;;;11.50;67.90;;;;;;5087635;28;20024;-52
2021/10/28 06:27:46;;;;;;;16.27;12.90;;;11.70;67.60;;;;;;5079106;28;20040;-52
2021/10/28 06:30:13;;;;;;;16.83;12.40;;;11.90;67.60;;;;;;5080262;28;20020;-55
2021/10/28 06:32:50;;;;;;;14.50;12.23;;;12.00;67.30;;;;;;5074395;28;20028;-54
2021/10/28 06:35:16;;;;;;;16.40;12.70;;;12.20;67.20;;;;;;5074902;28;20040;-52
2021/10/28 06:37:47;;;;;;;16.60;11.98;;;12.30;67.00;;;;;;5072671;28;20043;-55
2021/10/28 06:40:14;;;;;;;17.95;13.05;;;12.40;66.60;;;;;;5072188;28;20035;-55
2021/10/28 06:42:40;;;;;;;15.95;13.07;;;12.50;66.50;;;;;;5059201;28;20043;-55
2021/10/28 06:45:06;;;;;;;20.80;13.40;;;12.60;66.40;;;;;;5072590;28;20020;-56
2021/10/28 06:47:32;;;;;;;16.20;13.68;;;12.70;66.10;;;;;;5073698;28;20055;-55
2021/10/28 06:50:04;;;;;;;18.85;13.75;;;12.70;66.60;;;;;;5074019;28;20115;-53
2021/10/28 06:52:39;;;;;;;18.60;13.60;;;12.80;65.60;;;;;;5083414;28;20031;-52
2021/10/28 06:55:08;;;;;;;20.80;13.52;;;12.80;65.50;;;;;;5078571;28;20077;-55
2021/10/28 07:03:04;;;;;;;19.02;13.23;;;12.80;65.70;;;;;;5068346;28;20077;-55
2021/10/28 07:05:30;;;;;;;17.63;13.45;;;12.90;65.70;;;;;;5068390;28;20028;-53
2021/10/28 07:07:55;;;;;;;17.13;13.05;;;12.90;65.60;;;;;;5061302;28;20032;-55
2021/10/28 07:10:23;;;;;;;18.42;12.75;;;13.00;65.70;;;;;;5071381;28;20028;-55
2021/10/28 07:12:57;;;;;;;18.67;13.40;;;13.00;65.50;;;;;;5074311;28;20043;-55
2021/10/28 07:25:42;;;;;;;20.35;14.48;;;13.20;65.40;;;;;;5051794;28;20028;-55
2021/10/28 07:28:27;;;;;;;19.25;14.63;;;13.20;65.50;;;;;;5057620;28;20048;-55
2021/10/28 07:31:19;;;;;;;20.10;13.40;;;13.20;65.60;;;;;;5064298;28;20102;-54
2021/10/28 07:58:39;;;;;;;18.75;13.30;;;13.80;65.10;;;;;;5069116;28;20486;-56
2021/10/28 08:17:39;;;;;;;20.48;13.52;;;14.20;64.70;;;;;;5059577;28;20036;-54
2021/10/28 08:20:14;;;;;;;17.30;12.00;;;14.30;64.60;;;;;;5062757;28;20032;-54
2021/10/28 08:22:54;;;;;;;17.02;12.60;;;14.40;64.70;;;;;;5061481;28;20472;-55
2021/10/28 08:30:48;;;;;;;16.02;11.68;;;14.70;64.50;;;;;;5057943;28;20074;-55
2021/10/28 08:33:14;;;;;;;15.98;12.02;;;14.80;64.30;;;;;;5060092;28;20115;-56
2021/10/28 08:35:56;;;;;;;18.27;12.55;;;14.80;64.70;;;;;;5067667;28;20050;-55
2021/10/28 08:38:22;;;;;;;18.42;12.65;;;14.90;64.00;;;;;;5063136;28;20445;-56
2021/10/28 08:40:54;;;;;;;17.15;13.00;;;15.00;63.90;;;;;;5064880;28;20036;-56
2021/10/28 08:43:22;;;;;;;18.20;12.50;;;15.00;63.90;;;;;;5059685;28;20882;-55
2021/10/28 08:45:50;;;;;;;14.07;11.48;;;15.10;63.80;;;;;;5067481;28;20066;-56
2021/10/28 08:48:16;;;;;;;16.50;12.55;;;15.10;63.90;;;;;;5062501;28;20082;-55
2021/10/28 08:50:47;;;;;;;15.98;11.50;;;15.20;64.50;;;;;;5067881;28;20032;-57
2021/10/28 08:58:59;;;;;;;13.57;11.23;;;15.30;63.40;;;;;;5044607;28;20048;-55
2021/10/28 09:24:23;;;;;;;13.80;10.90;;;15.50;63.00;;;;;;5069845;28;20084;-56
2021/10/28 09:44:09;;;;;;;17.17;11.45;;;15.80;62.60;;;;;;5074656;28;20731;-53
2021/10/28 09:46:41;;;;;;;12.82;10.40;;;15.90;62.50;;;;;;5072898;28;20027;-56
2021/10/28 09:57:35;;;;;;;15.48;11.50;;;16.00;62.00;;;;;;5073624;28;20054;-56
2021/10/28 09:58:17;;;;;;;14.43;11.35;;;16.00;62.10;;;;;;5071426;28;20135;-54
2021/10/28 10:00:39;;;;;;;14.40;11.57;;;16.00;62.20;;;;;;5068246;28;20043;-56
2021/10/28 10:03:10;;;;;;;15.18;11.07;;;16.00;62.20;;;;;;5070180;28;20439;-55
2021/10/28 10:05:37;;;;;;;17.75;11.95;;;16.00;62.20;;;;;;5075288;28;20051;-56
2021/10/28 10:08:07;;;;;;;14.75;10.93;;;16.00;62.00;;;;;;5046188;28;20036;-56
2021/10/28 10:10:33;;;;;;;17.27;11.27;;;16.00;62.00;;;;;;5075432;28;20036;-56
2021/10/28 10:13:00;;;;;;;15.05;10.18;;;16.00;61.90;;;;;;5076152;28;20526;-55
2021/10/28 10:15:26;;;;;;;14.68;10.68;;;16.00;61.80;;;;;;5075789;28;20043;-53
2021/10/28 10:18:05;;;;;;;13.80;9.77;;;16.00;61.70;;;;;;5076671;28;20028;-56
2021/10/28 10:20:50;;;;;;;15.30;11.00;;;16.00;61.90;;;;;;5081948;28;20027;-56
2021/10/28 10:23:22;;;;;;;13.25;9.85;;;16.00;61.80;;;;;;5078075;28;20055;-55
2021/10/28 13:51:21;;;;;;;12.20;8.10;;;16.00;62.80;;;;;;5029033;28;20174;-56
2021/10/28 13:54:22;;;;;;;10.57;8.07;;;16.00;63.00;;;;;;5066246;28;20043;-56
2021/10/28 13:59:33;;;;;;;11.38;8.65;;;16.00;63.00;;;;;;5064800;28;20044;-55
2021/10/28 14:21:42;;;;;;;10.63;8.38;;;15.90;63.50;;;;;;5071466;28;20112;-56
2021/10/28 15:36:57;;;;;;;17.80;12.57;;;15.50;65.60;;;;;;5090944;28;20609;-56
2021/10/28 16:22:49;;;;;;;18.42;13.10;;;15.30;66.60;;;;;;5094975;28;20039;-57
2021/10/28 16:25:15;;;;;;;19.75;15.05;;;15.30;66.60;;;;;;5098069;28;20020;-56
2021/10/28 16:27:41;;;;;;;21.92;15.55;;;15.30;66.60;;;;;;5070873;28;20070;-54
2021/10/28 16:30:08;;;;;;;20.50;14.60;;;15.30;66.70;;;;;;5092314;28;20476;-55
2021/10/28 16:32:34;;;;;;;18.92;14.15;;;15.40;66.60;;;;;;5091034;28;20032;-53
2021/10/28 16:35:01;;;;;;;21.35;15.48;;;15.40;66.70;;;;;;5091985;28;20036;-57
2021/10/28 16:37:29;;;;;;;18.83;14.25;;;15.40;66.60;;;;;;5098730;28;20028;-55
2021/10/28 16:39:54;;;;;;;20.63;14.95;;;15.40;66.60;;;;;;5090496;28;20354;-55
2021/10/28 16:42:21;;;;;;;21.38;14.60;;;15.30;66.60;;;;;;5091662;28;20019;-57
2021/10/28 16:44:47;;;;;;;20.42;15.45;;;15.40;66.70;;;;;;5110030;28;20074;-57
2021/10/28 16:47:14;;;;;;;21.25;14.88;;;15.30;66.60;;;;;;5110958;28;20028;-54
2021/10/28 16:49:39;;;;;;;22.42;15.77;;;15.30;66.60;;;;;;5116875;28;20032;-54
2021/10/28 16:52:06;;;;;;;23.13;16.63;;;15.40;66.70;;;;;;5111412;28;20036;-57
2021/10/28 16:54:33;;;;;;;21.13;16.67;;;15.40;66.70;;;;;;5107946;28;20070;-56
2021/10/28 16:56:59;;;;;;;23.92;17.85;;;15.30;66.60;;;;;;5096238;28;20035;-56
2021/10/28 16:59:25;;;;;;;23.13;17.40;;;15.30;66.70;;;;;;5083547;28;20380;-54
2021/10/28 17:01:52;;;;;;;23.10;16.67;;;15.40;66.80;;;;;;5085240;28;20025;-55
2021/10/28 17:04:19;;;;;;;26.23;18.45;;;15.40;66.70;;;;;;5075895;28;20020;-54
2021/10/28 17:06:44;;;;;;;24.33;18.58;;;15.30;66.60;;;;;;5075828;28;20074;-57
2021/10/28 17:09:10;;;;;;;28.95;19.17;;;15.30;66.70;;;;;;5076030;28;20051;-57
2021/10/28 17:11:37;;;;;;;26.08;18.65;;;15.30;66.80;;;;;;5075742;28;20017;-57
2021/10/28 17:14:05;;;;;;;25.75;18.95;;;15.30;66.80;;;;;;5108075;28;20047;-57
2021/10/28 17:16:32;;;;;;;24.70;17.60;;;15.30;66.90;;;;;;5115319;28;20024;-54
2021/10/28 17:18:58;;;;;;;25.35;17.67;;;15.30;66.80;;;;;;5084361;28;20032;-57
2021/10/28 17:21:24;;;;;;;25.00;17.23;;;15.30;66.90;;;;;;5087834;28;20065;-56
2021/10/28 17:24:02;;;;;;;25.15;17.58;;;15.30;66.90;;;;;;5090276;28;20047;-57
2021/10/28 17:26:29;;;;;;;20.77;16.08;;;15.30;67.00;;;;;;5101098;28;20028;-57
2021/10/28 17:28:59;;;;;;;20.67;15.73;;;15.30;66.90;;;;;;5091473;28;20038;-56
2021/10/28 17:31:27;;;;;;;22.95;15.77;;;15.30;67.00;;;;;;5116048;28;20110;-54
2021/10/28 17:33:53;;;;;;;20.73;15.60;;;15.30;67.10;;;;;;5113998;28;20096;-54
2021/10/28 17:36:19;;;;;;;19.38;15.20;;;15.30;67.10;;;;;;5094298;28;20048;-55
2021/10/28 17:38:44;;;;;;;19.98;14.98;;;15.20;67.20;;;;;;5090646;28;20054;-54
2021/10/28 17:41:10;;;;;;;19.42;15.10;;;15.20;67.30;;;;;;5095468;28;20078;-54
2021/10/28 17:43:42;;;;;;;23.23;16.20;;;15.20;67.20;;;;;;5094661;28;20399;-56
2021/10/28 17:46:08;;;;;;;20.70;15.80;;;15.20;67.30;;;;;;5090390;28;20095;-56
2021/10/28 17:48:34;;;;;;;22.15;15.75;;;15.20;67.30;;;;;;5100528;28;20055;-57
2021/10/28 17:51:00;;;;;;;19.80;15.82;;;15.20;67.50;;;;;;5091650;28;20060;-56
2021/10/28 17:53:25;;;;;;;20.45;15.07;;;15.10;67.50;;;;;;5083277;28;20044;-55
2021/10/28 17:55:51;;;;;;;20.42;15.50;;;15.20;67.60;;;;;;5082407;28;20107;-56
2021/10/28 17:58:18;;;;;;;20.05;13.75;;;15.20;67.60;;;;;;5077753;28;20498;-56
2021/10/28 18:00:44;;;;;;;18.60;13.88;;;15.20;67.90;;;;;;5101556;28;20027;-54
2021/10/28 18:03:10;;;;;;;16.80;12.63;;;15.10;67.60;;;;;;5115320;28;20028;-57
2021/10/28 18:05:37;;;;;;;16.02;12.10;;;15.10;67.70;;;;;;5115209;28;20027;-55
2021/10/28 18:08:03;;;;;;;18.27;11.93;;;15.10;67.80;;;;;;5081153;28;20032;-55
2021/10/28 18:10:29;;;;;;;16.38;11.50;;;15.10;68.00;;;;;;5098221;28;20380;-54
2021/10/28 18:12:55;;;;;;;15.90;11.10;;;15.10;67.90;;;;;;5095203;28;20031;-54
2021/10/28 18:15:23;;;;;;;15.70;11.85;;;15.10;68.00;;;;;;5091620;28;20486;-54
2021/10/28 18:17:49;;;;;;;14.82;10.35;;;15.10;68.10;;;;;;5097439;28;20088;-54
2021/10/28 18:20:16;;;;;;;15.40;11.05;;;15.10;68.30;;;;;;5104426;28;20110;-54
2021/10/28 18:22:43;;;;;;;14.27;10.20;;;15.10;68.30;;;;;;5078643;28;20031;-57
2021/10/28 18:25:10;;;;;;;14.35;9.70;;;15.00;68.30;;;;;;5094706;28;20055;-57
2021/10/28 18:27:39;;;;;;;13.45;10.32;;;15.10;68.50;;;;;;5105262;28;20053;-55
2021/10/28 18:30:11;;;;;;;12.82;9.85;;;15.00;68.50;;;;;;5095012;28;20027;-54
2021/10/28 18:32:38;;;;;;;13.77;10.15;;;15.00;68.70;;;;;;5094640;28;20078;-56
2021/10/28 18:35:05;;;;;;;13.40;10.50;;;15.00;68.70;;;;;;5094111;28;21088;-57
2021/10/28 18:37:31;;;;;;;14.35;10.02;;;15.00;68.80;;;;;;5094110;28;20032;-54
2021/10/28 18:39:57;;;;;;;13.60;10.23;;;15.00;69.00;;;;;;5073973;28;20024;-57
2021/10/28 18:42:22;;;;;;;14.80;10.40;;;15.00;69.10;;;;;;5077115;28;20017;-54
2021/10/28 18:44:48;;;;;;;16.33;10.35;;;14.90;69.00;;;;;;5098863;28;20027;-54
2021/10/28 18:47:15;;;;;;;12.73;9.85;;;14.90;69.10;;;;;;5114543;28;20030;-52
2021/10/28 18:49:41;;;;;;;12.02;10.30;;;15.00;69.30;;;;;;5114777;28;20019;-52
2021/10/28 18:52:07;;;;;;;14.27;10.07;;;14.90;69.20;;;;;;5114437;28;20479;-51
2021/10/28 18:54:33;;;;;;;13.70;10.77;;;14.90;69.20;;;;;;5114675;28;20028;-54
2021/10/28 18:56:59;;;;;;;13.68;10.52;;;14.90;69.10;;;;;;5097568;28;20024;-55
2021/10/28 18:59:26;;;;;;;12.90;10.55;;;14.90;69.20;;;;;;5093879;28;20028;-54
2021/10/28 19:01:54;;;;;;;15.50;11.02;;;14.90;69.30;;;;;;5096831;28;20020;-53
2021/10/28 19:04:20;;;;;;;14.25;10.45;;;14.90;69.40;;;;;;5093914;28;20077;-57
2021/10/28 19:06:46;;;;;;;14.15;11.05;;;14.90;69.40;;;;;;5093810;28;20024;-53
2021/10/28 19:09:13;;;;;;;15.50;11.73;;;14.90;69.40;;;;;;5107204;28;20015;-55
2021/10/28 19:11:39;;;;;;;14.30;10.57;;;14.90;69.50;;;;;;5101518;28;20024;-56
2021/10/28 19:14:04;;;;;;;14.27;11.00;;;14.90;69.50;;;;;;5089683;28;20345;-53
2021/10/28 19:16:30;;;;;;;13.13;10.60;;;14.90;69.40;;;;;;5073387;28;20020;-53
2021/10/28 19:18:55;;;;;;;14.65;11.55;;;14.90;69.50;;;;;;5073274;28;20035;-55
2021/10/28 19:21:21;;;;;;;12.15;9.73;;;14.90;69.60;;;;;;5073303;28;20016;-52
2021/10/28 19:23:47;;;;;;;15.35;11.10;;;14.90;69.60;;;;;;5075601;28;20036;-52
2021/10/28 19:26:13;;;;;;;15.70;11.18;;;14.90;69.70;;;;;;5098071;28;20016;-53
2021/10/28 19:28:42;;;;;;;13.45;10.60;;;14.90;69.70;;;;;;5102255;28;20024;-52
2021/10/28 19:31:18;;;;;;;13.45;10.45;;;14.90;69.70;;;;;;5098301;28;20032;-53
2021/10/28 19:33:55;;;;;;;14.73;10.25;;;14.90;69.90;;;;;;5093207;28;20075;-53
2021/10/28 19:47:06;;;;;;;11.77;9.40;;;14.90;70.20;;;;;;5073027;28;20562;-54
2021/10/28 19:49:32;;;;;;;14.07;10.52;;;14.90;70.20;;;;;;5093654;28;20383;-56
2021/10/28 19:52:01;;;;;;;13.85;9.73;;;14.90;70.20;;;;;;5094916;28;20044;-57
2021/10/28 19:54:27;;;;;;;14.32;10.15;;;14.90;70.50;;;;;;5103443;28;20063;-57
2021/10/28 19:56:54;;;;;;;14.00;9.55;;;14.90;70.50;;;;;;5080928;28;20059;-54
2021/10/28 19:59:20;;;;;;;12.05;9.82;;;14.90;70.60;;;;;;5072856;28;20028;-56
2021/10/28 20:02:12;;;;;;;14.60;9.82;;;14.90;70.70;;;;;;5103620;28;20051;-54
2021/10/28 20:04:47;;;;;;;12.05;9.50;;;14.90;70.80;;;;;;5112867;28;20528;-57
2021/10/28 20:07:20;;;;;;;13.95;10.00;;;14.90;70.80;;;;;;5113268;28;20031;-57
2021/10/28 20:15:30;;;;;;;14.25;9.48;;;14.90;71.10;;;;;;5075084;28;20039;-54
2021/10/28 20:20:40;;;;;;;11.15;9.07;;;14.90;71.20;;;;;;5072645;28;20563;-54
2021/10/28 20:23:07;;;;;;;14.25;9.60;;;14.80;71.40;;;;;;5072536;28;20134;-53
2021/10/28 20:25:33;;;;;;;14.23;10.27;;;14.80;71.20;;;;;;5072815;28;20521;-57
2021/10/28 20:28:03;;;;;;;14.38;10.35;;;14.90;71.30;;;;;;5072963;28;20391;-56
2021/10/28 20:30:30;;;;;;;11.73;9.70;;;14.80;71.30;;;;;;5106068;28;20028;-56
2021/10/28 20:32:57;;;;;;;11.55;9.48;;;14.90;71.40;;;;;;5092994;28;20470;-56
2021/10/28 20:37:50;;;;;;;13.07;10.40;;;14.90;71.40;;;;;;5113320;28;20031;-54
2021/10/28 20:40:16;;;;;;;14.70;10.20;;;14.90;71.40;;;;;;5095479;28;20012;-53
2021/10/28 20:42:47;;;;;;;13.82;10.52;;;14.90;71.40;;;;;;5104741;28;20020;-54
2021/10/28 20:45:16;;;;;;;11.88;9.13;;;14.90;71.30;;;;;;5076347;28;20029;-54
2021/10/28 20:47:43;;;;;;;13.50;10.00;;;14.80;71.30;;;;;;5072381;28;20059;-54
2021/10/28 20:50:11;;;;;;;15.98;11.07;;;14.90;71.40;;;;;;5074482;28;20082;-54
2021/10/28 20:52:39;;;;;;;15.32;11.02;;;14.90;71.30;;;;;;5096369;28;20031;-53
2021/10/28 20:55:06;;;;;;;17.00;11.15;;;14.90;71.40;;;;;;5096397;28;20028;-54
2021/10/28 20:57:33;;;;;;;14.18;11.07;;;14.90;71.40;;;;;;5075940;28;20027;-53
2021/10/28 20:59:59;;;;;;;13.50;10.80;;;14.90;71.30;;;;;;5102120;28;20034;-55
2021/10/28 21:02:24;;;;;;;16.88;11.98;;;14.90;71.40;;;;;;5089974;28;20123;-54
2021/10/28 21:04:50;;;;;;;14.60;10.82;;;14.80;71.40;;;;;;5086093;28;20020;-55
2021/10/28 21:07:16;;;;;;;14.18;10.70;;;14.90;71.40;;;;;;5111066;28;20040;-55
2021/10/28 21:09:42;;;;;;;11.85;9.95;;;14.90;71.40;;;;;;5093978;28;20035;-54
2021/10/28 21:12:08;;;;;;;14.95;10.52;;;14.90;71.40;;;;;;5096079;28;20020;-55
2021/10/28 21:14:34;;;;;;;13.95;10.85;;;14.90;71.30;;;;;;5096363;28;20032;-54
2021/10/28 21:16:59;;;;;;;15.02;10.75;;;14.90;71.30;;;;;;5095885;28;20028;-54
2021/10/28 21:19:25;;;;;;;13.75;10.75;;;14.90;71.50;;;;;;5096048;28;20031;-57
2021/10/28 21:21:51;;;;;;;13.95;10.85;;;14.90;71.30;;;;;;5095932;28;20491;-53
2021/10/28 21:24:18;;;;;;;14.45;10.85;;;14.90;71.30;;;;;;5087861;28;20380;-53
2021/10/28 21:26:44;;;;;;;15.55;10.52;;;14.90;71.30;;;;;;5075755;28;20469;-54
2021/10/28 21:29:10;;;;;;;14.43;10.68;;;14.90;71.40;;;;;;5076004;28;20037;-53
2021/10/28 21:31:36;;;;;;;14.98;11.32;;;14.90;71.40;;;;;;5100638;28;20476;-54
2021/10/28 21:34:02;;;;;;;14.95;11.10;;;14.90;71.30;;;;;;5100349;28;20077;-57
2021/10/28 21:36:28;;;;;;;13.63;10.88;;;14.90;71.40;;;;;;5095233;28;20040;-53